createdAt,value
2023-03-19T00:00:35.507Z,97086.03
2023-03-19T00:03:03.750Z,97080.06
2023-03-19T00:05:31.890Z,97086.28
2023-03-19T00:08:00.370Z,97089.13
2023-03-19T00:10:28.266Z,97088.41
2023-03-19T00:12:56.702Z,97078.84
2023-03-19T00:15:24.873Z,97080.63
2023-03-19T00:17:54.405Z,97083.88
2023-03-19T00:20:22.289Z,97083.03
2023-03-19T00:22:50.126Z,97088.41
2023-03-19T00:25:18.603Z,97084.22
2023-03-19T00:27:46.511Z,97083.28
2023-03-19T00:30:15.086Z,97089.59
2023-03-19T00:32:43.475Z,97086.97
2023-03-19T00:35:13.268Z,97095.84
2023-03-19T00:37:42.132Z,97098.34
2023-03-19T00:40:11.862Z,97095.72
2023-03-19T00:42:39.776Z,97100.63
2023-03-19T00:45:09.067Z,97090.72
2023-03-19T00:47:37.229Z,97094.19
2023-03-19T00:50:06.586Z,97103.06
2023-03-19T00:52:35.981Z,97097.06
2023-03-19T00:55:03.966Z,97103.78
2023-03-19T00:57:31.708Z,97100.16
2023-03-19T00:59:59.519Z,97098.00
2023-03-19T01:02:27.685Z,97090.34
2023-03-19T01:04:55.531Z,97092.72
2023-03-19T01:07:23.309Z,97097.59
2023-03-19T01:09:52.765Z,97081.41
2023-03-19T01:12:20.606Z,97079.94
2023-03-19T01:14:48.527Z,97081.97
2023-03-19T01:17:16.331Z,97079.44
2023-03-19T01:19:44.218Z,97078.84
2023-03-19T01:22:13.067Z,97081.72
2023-03-19T01:24:40.855Z,97088.03
2023-03-19T01:27:10.218Z,97077.75
2023-03-19T01:29:38.458Z,97082.38
2023-03-19T01:32:06.430Z,97090.44
2023-03-19T01:34:34.291Z,97083.47
2023-03-19T01:37:02.044Z,97082.53
2023-03-19T01:39:29.926Z,97075.22
2023-03-19T01:42:02.482Z,97074.16
2023-03-19T01:44:33.341Z,97086.97
2023-03-19T01:47:03.510Z,97088.19
2023-03-19T01:49:32.002Z,97068.81
2023-03-19T01:52:00.934Z,97080.09
2023-03-19T01:54:29.546Z,97080.78
2023-03-19T01:57:00.611Z,97076.97
2023-03-19T01:59:32.260Z,97082.84
2023-03-19T02:02:03.599Z,97088.84
2023-03-19T02:04:32.831Z,97084.41
2023-03-19T02:07:02.389Z,97087.28
2023-03-19T02:09:30.582Z,97085.84
2023-03-19T02:11:58.486Z,97094.91
2023-03-19T02:14:26.694Z,97097.16
2023-03-19T02:16:56.203Z,97084.69
2023-03-19T02:19:27.666Z,97099.88
2023-03-19T02:21:57.671Z,97093.16
2023-03-19T02:24:28.469Z,97090.03
2023-03-19T02:26:58.710Z,97079.91
2023-03-19T02:29:26.883Z,97081.00
2023-03-19T02:31:54.638Z,97088.06
2023-03-19T02:34:38.781Z,97086.97
2023-03-19T02:37:12.641Z,97082.44
2023-03-19T02:39:45.410Z,97077.19
2023-03-19T02:42:14.917Z,97083.94
2023-03-19T02:44:42.767Z,97089.31
2023-03-19T02:47:10.789Z,97086.56
2023-03-19T02:49:38.633Z,97077.53
2023-03-19T02:52:06.710Z,97087.50
2023-03-19T02:54:34.509Z,97093.63
2023-03-19T02:57:02.886Z,97086.66
2023-03-19T02:59:32.156Z,97093.38
2023-03-19T03:02:00.716Z,97093.63
2023-03-19T03:04:29.251Z,97093.63
2023-03-19T03:06:57.774Z,97097.09
2023-03-19T03:09:25.925Z,97091.09
2023-03-19T03:11:54.011Z,97094.69
2023-03-19T03:14:22.133Z,97093.00
2023-03-19T03:16:51.506Z,97094.06
2023-03-19T03:19:19.556Z,97082.41
2023-03-19T03:21:47.321Z,97093.69
2023-03-19T03:24:15.337Z,97091.25
2023-03-19T03:26:44.197Z,97090.75
2023-03-19T03:29:12.097Z,97091.91
2023-03-19T03:31:39.920Z,97099.13
2023-03-19T03:34:09.175Z,97092.38
2023-03-19T03:36:37.012Z,97096.19
2023-03-19T03:39:05.237Z,97092.91
2023-03-19T03:41:33.200Z,97097.59
2023-03-19T03:44:01.264Z,97097.88
2023-03-19T03:46:29.128Z,97092.97
2023-03-19T03:48:56.960Z,97093.31
2023-03-19T03:51:26.151Z,97095.75
2023-03-19T03:53:53.942Z,97092.91
2023-03-19T03:56:21.915Z,97097.00
2023-03-19T03:58:49.812Z,97091.66
2023-03-19T04:01:18.588Z,97099.97
2023-03-19T04:03:46.586Z,97099.56
2023-03-19T04:06:16.397Z,97091.25
2023-03-19T04:08:46.037Z,97103.88
2023-03-19T04:11:13.878Z,97099.56
2023-03-19T04:13:42.308Z,97116.38
2023-03-19T04:16:11.568Z,97116.19
2023-03-19T04:18:39.830Z,97111.34
2023-03-19T04:21:08.978Z,97105.75
2023-03-19T04:23:36.791Z,97110.59
2023-03-19T04:26:07.545Z,97116.13
2023-03-19T04:28:35.482Z,97114.84
2023-03-19T04:31:04.644Z,97116.03
2023-03-19T04:33:33.021Z,97120.75
2023-03-19T04:36:01.449Z,97118.41
2023-03-19T04:38:29.304Z,97116.31
2023-03-19T04:40:57.680Z,97123.63
2023-03-19T04:43:27.393Z,97131.94
2023-03-19T04:45:55.860Z,97128.78
2023-03-19T04:48:23.813Z,97126.81
2023-03-19T04:50:53.340Z,97130.16
2023-03-19T04:53:21.435Z,97125.56
2023-03-19T04:55:49.251Z,97127.88
2023-03-19T04:58:17.056Z,97127.88
2023-03-19T05:00:47.620Z,97122.84
2023-03-19T05:03:15.434Z,97131.75
2023-03-19T05:05:43.615Z,97139.75
2023-03-19T05:08:11.645Z,97124.91
2023-03-19T05:10:39.471Z,97135.41
2023-03-19T05:13:07.932Z,97138.97
2023-03-19T05:15:35.860Z,97136.56
2023-03-19T05:18:05.112Z,97135.81
2023-03-19T05:20:33.188Z,97136.75
2023-03-19T05:23:01.274Z,97144.00
2023-03-19T05:25:30.185Z,97148.44
2023-03-19T05:27:58.036Z,97146.09
2023-03-19T05:30:27.263Z,97152.38
2023-03-19T05:32:57.335Z,97152.56
2023-03-19T05:35:26.889Z,97148.56
2023-03-19T05:37:54.918Z,97153.19
2023-03-19T05:40:23.328Z,97158.44
2023-03-19T05:42:51.191Z,97162.19
2023-03-19T05:45:19.577Z,97167.66
2023-03-19T05:47:50.092Z,97170.38
2023-03-19T05:50:18.442Z,97171.78
2023-03-19T05:52:47.646Z,97172.63
2023-03-19T05:55:15.536Z,97166.06
2023-03-19T05:57:43.323Z,97126.63
2023-03-19T06:00:12.583Z,97164.59
2023-03-19T06:02:40.735Z,97156.44
2023-03-19T06:05:09.607Z,97167.41
2023-03-19T06:07:37.955Z,97178.75
2023-03-19T06:10:08.442Z,97175.19
2023-03-19T06:12:36.244Z,97169.19
2023-03-19T06:15:04.622Z,97169.19
2023-03-19T06:17:32.430Z,97176.03
2023-03-19T06:20:00.281Z,97179.50
2023-03-19T06:22:28.125Z,97184.34
2023-03-19T06:24:55.945Z,97186.06
2023-03-19T06:27:25.134Z,97199.72
2023-03-19T06:29:52.922Z,97195.41
2023-03-19T06:32:20.725Z,97198.56
2023-03-19T06:34:48.547Z,97197.84
2023-03-19T06:37:17.031Z,97201.97
2023-03-19T06:39:44.858Z,97201.97
2023-03-19T06:42:13.313Z,97201.03
2023-03-19T06:44:42.511Z,97194.28
2023-03-19T06:47:10.431Z,97199.41
2023-03-19T06:49:38.210Z,97198.69
2023-03-19T06:52:06.326Z,97197.66
2023-03-19T06:54:34.746Z,97200.09
2023-03-19T06:57:03.580Z,97201.38
2023-03-19T06:59:31.399Z,97206.34
2023-03-19T07:02:00.615Z,97207.00
2023-03-19T07:04:28.426Z,97204.91
2023-03-19T07:06:56.270Z,97210.72
2023-03-19T07:09:24.546Z,97216.50
2023-03-19T07:11:52.389Z,97218.00
2023-03-19T07:14:20.179Z,97217.09
2023-03-19T07:16:48.036Z,97225.69
2023-03-19T07:19:17.344Z,97237.16
2023-03-19T07:21:45.355Z,97237.25
2023-03-19T07:24:13.175Z,97238.09
2023-03-19T07:26:42.359Z,97235.88
2023-03-19T07:29:10.297Z,97246.00
2023-03-19T07:31:38.155Z,97243.56
2023-03-19T07:34:06.053Z,97237.56
2023-03-19T07:36:35.284Z,97245.16
2023-03-19T07:39:03.817Z,97245.78
2023-03-19T07:41:31.863Z,97243.00
2023-03-19T07:44:01.121Z,97247.88
2023-03-19T07:46:29.019Z,97241.88
2023-03-19T07:48:56.821Z,97242.44
2023-03-19T07:51:24.659Z,97243.94
2023-03-19T07:53:53.805Z,97243.00
2023-03-19T07:56:21.639Z,97240.16
2023-03-19T07:58:49.474Z,97242.91
2023-03-19T08:01:17.308Z,97248.47
2023-03-19T08:03:45.208Z,97243.88
2023-03-19T08:06:13.016Z,97247.28
2023-03-19T08:08:41.085Z,97241.91
2023-03-19T08:11:10.441Z,97251.47
2023-03-19T08:13:38.343Z,97241.41
2023-03-19T08:16:07.039Z,97241.22
2023-03-19T08:18:34.943Z,97255.13
2023-03-19T08:21:02.751Z,97270.59
2023-03-19T08:23:30.565Z,97255.56
2023-03-19T08:25:58.414Z,97269.88
2023-03-19T08:28:27.659Z,97262.34
2023-03-19T08:30:56.787Z,97269.63
2023-03-19T08:33:24.866Z,97268.28
2023-03-19T08:35:52.960Z,97262.72
2023-03-19T08:38:21.212Z,97258.81
2023-03-19T08:40:49.156Z,97254.66
2023-03-19T08:43:17.006Z,97262.13
2023-03-19T08:45:46.164Z,97265.19
2023-03-19T08:48:13.983Z,97258.06
2023-03-19T08:50:41.851Z,97265.84
2023-03-19T08:53:09.669Z,97271.63
2023-03-19T08:55:37.614Z,97265.97
2023-03-19T08:58:05.523Z,97261.63
2023-03-19T09:00:33.585Z,97275.63
2023-03-19T09:03:02.895Z,97277.66
2023-03-19T09:05:30.685Z,97270.06
2023-03-19T09:07:58.491Z,97271.34
2023-03-19T09:10:26.599Z,97279.56
2023-03-19T09:12:54.446Z,97286.34
2023-03-19T09:15:22.240Z,97275.38
2023-03-19T09:17:50.054Z,97292.03
2023-03-19T09:20:19.562Z,97293.16
2023-03-19T09:22:47.387Z,97296.75
2023-03-19T09:25:15.276Z,97284.44
2023-03-19T09:27:43.080Z,97293.38
2023-03-19T09:30:12.484Z,97294.53
2023-03-19T09:32:40.855Z,97295.13
2023-03-19T09:35:09.730Z,97296.00
2023-03-19T09:37:38.961Z,97294.81
2023-03-19T09:40:08.216Z,97303.22
2023-03-19T09:42:51.360Z,97299.13
2023-03-19T09:45:20.442Z,97300.81
2023-03-19T09:47:51.579Z,97296.50
2023-03-19T09:50:21.810Z,97300.91
2023-03-19T09:52:54.509Z,97304.16
2023-03-19T09:55:33.772Z,97293.22
2023-03-19T09:58:02.716Z,97296.56
2023-03-19T10:00:34.004Z,97296.66
2023-03-19T10:03:05.490Z,97299.94
2023-03-19T10:05:43.651Z,97301.41
2023-03-19T10:08:32.860Z,97304.28
2023-03-19T10:11:19.246Z,97294.53
2023-03-19T10:13:55.646Z,97292.69
2023-03-19T10:16:26.265Z,97300.25
2023-03-19T10:18:57.578Z,97298.69
2023-03-19T10:21:30.076Z,97307.09
2023-03-19T10:24:03.488Z,97300.03
2023-03-19T10:26:35.406Z,97296.50
2023-03-19T10:29:08.257Z,97298.56
2023-03-19T10:31:44.918Z,97304.41
2023-03-19T10:34:24.513Z,97304.06
2023-03-19T10:37:00.205Z,97307.84
2023-03-19T10:39:29.845Z,97297.69
2023-03-19T10:42:05.074Z,97304.28
2023-03-19T10:44:36.437Z,97305.97
2023-03-19T10:47:11.902Z,97308.84
2023-03-19T10:49:39.789Z,97313.13
2023-03-19T10:52:11.146Z,97312.31
2023-03-19T10:54:41.491Z,97328.34
2023-03-19T10:57:22.921Z,97321.59
2023-03-19T10:59:50.743Z,97324.78
2023-03-19T11:02:20.007Z,97326.31
2023-03-19T11:04:47.966Z,97340.03
2023-03-19T11:07:19.785Z,97339.00
2023-03-19T11:09:50.174Z,97335.41
2023-03-19T11:12:21.150Z,97337.22
2023-03-19T11:14:50.102Z,97340.59
2023-03-19T11:17:22.562Z,97341.53
2023-03-19T11:19:53.509Z,97327.19
2023-03-19T11:22:26.105Z,97333.84
2023-03-19T11:24:56.653Z,97330.66
2023-03-19T11:27:29.814Z,97336.91
2023-03-19T11:29:57.895Z,97333.19
2023-03-19T11:33:02.436Z,97334.00
2023-03-19T11:35:33.289Z,97327.03
2023-03-19T11:38:03.014Z,97330.84
2023-03-19T11:40:37.483Z,97337.81
2023-03-19T11:43:36.804Z,97337.31
2023-03-19T11:46:11.428Z,97334.53
2023-03-19T11:48:49.954Z,97334.13
2023-03-19T11:51:20.820Z,97332.41
2023-03-19T11:53:56.463Z,97323.59
2023-03-19T11:56:35.746Z,97317.34
2023-03-19T11:59:31.381Z,97322.75
2023-03-19T12:02:40.545Z,97318.31
2023-03-19T12:05:16.410Z,97333.94
2023-03-19T12:07:47.728Z,97323.59
2023-03-19T12:10:30.300Z,97340.69
2023-03-19T12:13:09.488Z,97327.44
2023-03-19T12:15:41.187Z,97336.56
2023-03-19T12:18:17.624Z,97332.38
2023-03-19T12:20:56.424Z,97333.50
2023-03-19T12:23:41.145Z,97333.94
2023-03-19T12:26:09.785Z,97344.28
2023-03-19T12:28:42.955Z,97334.16
2023-03-19T12:31:25.555Z,97340.47
2023-03-19T12:34:00.663Z,97337.81
2023-03-19T12:36:30.864Z,97334.72
2023-03-19T12:39:01.128Z,97341.84
2023-03-19T12:41:29.757Z,97337.63
2023-03-19T12:44:03.175Z,97338.91
2023-03-19T12:46:33.905Z,97333.53
2023-03-19T12:49:04.712Z,97335.72
2023-03-19T12:51:34.939Z,97329.63
2023-03-19T12:54:05.127Z,97322.56
2023-03-19T12:56:36.944Z,97317.84
2023-03-19T12:59:11.176Z,97319.78
2023-03-19T13:01:43.041Z,97321.94
2023-03-19T13:04:13.607Z,97327.41
2023-03-19T13:06:45.793Z,97332.66
2023-03-19T13:09:17.249Z,97333.09
2023-03-19T13:11:48.019Z,97325.09
2023-03-19T13:14:22.793Z,97328.47
2023-03-19T13:16:56.576Z,97331.94
2023-03-19T13:19:29.682Z,97326.03
2023-03-19T13:22:00.850Z,97332.44
2023-03-19T13:24:30.309Z,97329.59
2023-03-19T13:27:01.079Z,97329.16
2023-03-19T13:29:32.233Z,97320.28
2023-03-19T13:32:05.105Z,97317.22
2023-03-19T13:34:34.613Z,97314.22
2023-03-19T13:37:07.069Z,97308.22
2023-03-19T13:39:35.659Z,97311.50
2023-03-19T13:42:37.377Z,97314.22
2023-03-19T13:45:28.681Z,97305.31
2023-03-19T13:47:58.609Z,97302.66
2023-03-19T13:50:31.485Z,97295.69
2023-03-19T13:53:50.039Z,97292.03
2023-03-19T13:56:29.657Z,97297.97
2023-03-19T13:59:22.357Z,97298.66
2023-03-19T14:01:51.752Z,97280.84
2023-03-19T14:04:22.020Z,97293.19
2023-03-19T14:06:51.486Z,97293.47
2023-03-19T14:09:39.026Z,97301.19
2023-03-19T14:12:11.847Z,97293.91
2023-03-19T14:14:44.713Z,97284.47
2023-03-19T14:17:16.619Z,97290.13
2023-03-19T14:19:44.779Z,97295.03
2023-03-19T14:22:21.454Z,97242.34
2023-03-19T14:24:58.156Z,97303.34
2023-03-19T14:27:30.657Z,97292.69
2023-03-19T14:30:00.843Z,97295.38
2023-03-19T14:32:34.429Z,97296.69
2023-03-19T14:35:05.797Z,97294.31
2023-03-19T14:37:43.036Z,97291.78
2023-03-19T14:40:13.411Z,97286.59
2023-03-19T14:42:47.993Z,97285.06
2023-03-19T14:45:33.719Z,97284.38
2023-03-19T14:48:48.813Z,97279.28
2023-03-19T14:51:52.873Z,97278.25
2023-03-19T14:54:34.859Z,97285.19
2023-03-19T14:57:07.641Z,97285.31
2023-03-19T14:59:39.661Z,97284.47
2023-03-19T15:02:20.990Z,97285.81
2023-03-19T15:04:49.534Z,97277.16
2023-03-19T15:07:21.660Z,97277.00
2023-03-19T15:09:53.473Z,97225.56
2023-03-19T15:12:49.739Z,97275.31
2023-03-19T15:15:26.004Z,97275.94
2023-03-19T15:18:03.717Z,97273.16
2023-03-19T15:20:38.304Z,97270.53
2023-03-19T15:23:23.334Z,97273.03
2023-03-19T15:25:56.981Z,97267.03
2023-03-19T15:28:25.574Z,97272.03
2023-03-19T15:31:06.362Z,97275.19
2023-03-19T15:33:45.609Z,97258.06
2023-03-19T15:36:17.655Z,97265.47
2023-03-19T15:38:49.517Z,97265.53
2023-03-19T15:41:18.659Z,97277.63
2023-03-19T15:43:46.849Z,97281.28
2023-03-19T15:46:17.166Z,97283.56
2023-03-19T15:48:46.801Z,97280.91
2023-03-19T15:51:15.982Z,97279.41
2023-03-19T15:53:44.107Z,97281.53
2023-03-19T15:56:14.784Z,97276.06
2023-03-19T15:58:45.106Z,97278.47
2023-03-19T16:01:13.230Z,97281.84
2023-03-19T16:03:43.366Z,97292.84
2023-03-19T16:06:17.881Z,97292.13
2023-03-19T16:08:49.490Z,97295.31
2023-03-19T16:11:28.771Z,97299.66
2023-03-19T16:13:59.091Z,97285.88
2023-03-19T16:16:29.958Z,97301.84
2023-03-19T16:18:58.552Z,97301.44
2023-03-19T16:21:30.535Z,97302.91
2023-03-19T16:24:00.916Z,97269.44
2023-03-19T16:26:32.594Z,97300.72
2023-03-19T16:29:04.844Z,97305.72
2023-03-19T16:31:34.029Z,97305.22
2023-03-19T16:34:02.034Z,97301.72
2023-03-19T16:36:32.372Z,97318.41
2023-03-19T16:39:15.425Z,97313.78
2023-03-19T16:41:45.997Z,97313.03
2023-03-19T16:44:17.264Z,97320.34
2023-03-19T16:46:45.195Z,97322.97
2023-03-19T16:49:13.008Z,97323.09
2023-03-19T16:51:41.093Z,97324.97
2023-03-19T16:54:10.985Z,97326.47
2023-03-19T16:56:38.928Z,97336.44
2023-03-19T16:59:09.888Z,97326.91
2023-03-19T17:01:37.758Z,97329.06
2023-03-19T17:04:11.298Z,97328.53
2023-03-19T17:06:39.157Z,97331.56
2023-03-19T17:09:07.193Z,97336.03
2023-03-19T17:11:38.041Z,97329.09
2023-03-19T17:14:08.047Z,97335.47
2023-03-19T17:16:36.087Z,97339.25
2023-03-19T17:19:18.394Z,97335.81
2023-03-19T17:21:46.987Z,97341.53
2023-03-19T17:24:23.593Z,97342.00
2023-03-19T17:26:52.008Z,97352.13
2023-03-19T17:29:23.204Z,97357.94
2023-03-19T17:31:51.651Z,97368.91
2023-03-19T17:34:21.363Z,97364.28
2023-03-19T17:36:52.895Z,97367.03
2023-03-19T17:39:21.722Z,97368.63
2023-03-19T17:41:49.597Z,97371.25
2023-03-19T17:44:17.529Z,97374.84
2023-03-19T17:46:49.802Z,97370.81
2023-03-19T17:49:22.009Z,97377.75
2023-03-19T17:51:50.119Z,97380.72
2023-03-19T17:54:18.311Z,97385.88
2023-03-19T17:56:46.218Z,97388.53
2023-03-19T17:59:14.288Z,97381.66
2023-03-19T18:01:44.033Z,97387.88
2023-03-19T18:04:15.065Z,97390.59
2023-03-19T18:06:44.562Z,97386.31
2023-03-19T18:09:19.739Z,97392.19
2023-03-19T18:11:47.566Z,97393.22
2023-03-19T18:14:15.568Z,97391.44
2023-03-19T18:16:43.786Z,97392.94
2023-03-19T18:19:19.483Z,97391.25
2023-03-19T18:21:47.324Z,97384.53
2023-03-19T18:24:15.409Z,97398.22
2023-03-19T18:26:43.351Z,97398.41
2023-03-19T18:29:11.276Z,97393.97
2023-03-19T18:31:41.876Z,97394.63
2023-03-19T18:34:11.789Z,97397.97
2023-03-19T18:36:41.602Z,97398.91
2023-03-19T18:39:12.394Z,97394.91
2023-03-19T18:41:40.454Z,97404.81
2023-03-19T18:44:09.126Z,97403.63
2023-03-19T18:46:38.274Z,97404.84
2023-03-19T18:49:08.510Z,97389.13
2023-03-19T18:51:36.398Z,97403.75
2023-03-19T18:54:05.739Z,97403.41
2023-03-19T18:56:34.556Z,97406.88
2023-03-19T18:59:04.728Z,97409.81
2023-03-19T19:01:32.876Z,97424.00
2023-03-19T19:04:01.491Z,97420.94
2023-03-19T19:06:46.460Z,97424.63
2023-03-19T19:09:16.382Z,97425.97
2023-03-19T19:11:47.549Z,97430.16
2023-03-19T19:14:19.970Z,97440.91
2023-03-19T19:16:47.992Z,97440.31
2023-03-19T19:19:17.612Z,97445.03
2023-03-19T19:21:45.486Z,97436.91
2023-03-19T19:24:14.977Z,97449.44
2023-03-19T19:26:45.461Z,97452.16
2023-03-19T19:29:18.776Z,97449.00
2023-03-19T19:31:46.812Z,97457.44
2023-03-19T19:34:16.760Z,97462.69
2023-03-19T19:36:44.693Z,97465.22
2023-03-19T19:39:13.168Z,97458.03
2023-03-19T19:41:43.654Z,97470.56
2023-03-19T19:44:18.224Z,97476.81
2023-03-19T19:46:46.235Z,97476.69
2023-03-19T19:49:14.501Z,97476.59
2023-03-19T19:51:42.462Z,97480.75
2023-03-19T19:54:10.435Z,97481.69
2023-03-19T19:56:39.162Z,97478.28
2023-03-19T19:59:08.211Z,97474.44
2023-03-19T20:01:37.429Z,97482.25
2023-03-19T20:04:06.143Z,97489.84
2023-03-19T20:06:33.986Z,97485.41
2023-03-19T20:09:01.859Z,97490.50
2023-03-19T20:11:32.344Z,97488.97
2023-03-19T20:14:00.423Z,97493.31
2023-03-19T20:16:28.331Z,97489.38
2023-03-19T20:18:57.550Z,97491.66
2023-03-19T20:21:25.647Z,97493.91
2023-03-19T20:23:55.522Z,97501.03
2023-03-19T20:26:24.765Z,97501.41
2023-03-19T20:28:52.888Z,97504.97
2023-03-19T20:31:29.469Z,97507.59
2023-03-19T20:33:58.780Z,97511.25
2023-03-19T20:36:26.721Z,97507.03
2023-03-19T20:38:54.651Z,97508.16
2023-03-19T20:41:24.117Z,97493.22
2023-03-19T20:43:52.527Z,97514.16
2023-03-19T20:46:21.320Z,97523.00
2023-03-19T20:48:49.345Z,97524.41
2023-03-19T20:51:21.563Z,97522.91
2023-03-19T20:53:51.327Z,97529.94
2023-03-19T20:56:21.919Z,97529.66
2023-03-19T20:58:49.813Z,97534.75
2023-03-19T21:01:18.559Z,97530.13
2023-03-19T21:03:46.607Z,97536.91
2023-03-19T21:06:17.700Z,97540.31
2023-03-19T21:08:48.642Z,97536.25
2023-03-19T21:11:18.916Z,97542.16
2023-03-19T21:13:47.995Z,97544.88
2023-03-19T21:16:19.717Z,97542.34
2023-03-19T21:18:47.935Z,97546.66
2023-03-19T21:21:16.664Z,97552.88
2023-03-19T21:23:51.385Z,97552.88
2023-03-19T21:26:22.257Z,97543.19
2023-03-19T21:28:51.691Z,97546.88
2023-03-19T21:31:21.525Z,97554.94
2023-03-19T21:33:50.551Z,97549.69
2023-03-19T21:36:18.951Z,97553.06
2023-03-19T21:38:47.615Z,97552.88
2023-03-19T21:41:21.847Z,97544.03
2023-03-19T21:43:52.483Z,97551.00
2023-03-19T21:46:24.603Z,97541.69
2023-03-19T21:48:53.445Z,97544.03
2023-03-19T21:51:21.419Z,97554.56
2023-03-19T21:53:49.548Z,97553.78
2023-03-19T21:56:22.761Z,97547.97
2023-03-19T21:58:52.099Z,97547.50
2023-03-19T22:01:21.819Z,97547.44
2023-03-19T22:03:49.810Z,97552.75
2023-03-19T22:06:18.020Z,97545.16
2023-03-19T22:08:48.074Z,97552.13
2023-03-19T22:11:18.374Z,97553.13
2023-03-19T22:13:47.686Z,97548.25
2023-03-19T22:16:19.848Z,97556.22
2023-03-19T22:18:47.920Z,97541.31
2023-03-19T22:21:16.615Z,97549.09
2023-03-19T22:23:44.506Z,97549.09
2023-03-19T22:26:27.147Z,97548.72
2023-03-19T22:28:57.181Z,97551.06
2023-03-19T22:31:25.501Z,97557.34
2023-03-19T22:33:53.631Z,97555.09
2023-03-19T22:36:21.446Z,97551.72
2023-03-19T22:38:49.461Z,97558.81
2023-03-19T22:41:19.178Z,97557.13
2023-03-19T22:43:47.337Z,97551.88
2023-03-19T22:46:19.793Z,97546.63
2023-03-19T22:48:50.065Z,97548.22
2023-03-19T22:51:19.795Z,97550.84
2023-03-19T22:53:47.651Z,97552.63
2023-03-19T22:56:16.175Z,97551.88
2023-03-19T22:58:44.546Z,97547.66
2023-03-19T23:01:29.963Z,97547.34
2023-03-19T23:03:58.087Z,97548.56
2023-03-19T23:06:30.538Z,97548.06
2023-03-19T23:08:59.033Z,97543.19
2023-03-19T23:11:27.076Z,97547.66
2023-03-19T23:13:56.715Z,97544.28
2023-03-19T23:16:26.544Z,97519.09
2023-03-19T23:21:23.475Z,97548.78
2023-03-19T23:23:52.304Z,97529.88
2023-03-19T23:26:26.383Z,97552.88
2023-03-19T23:28:54.355Z,97559.81
2023-03-19T23:31:22.214Z,97554.66
2023-03-19T23:33:51.380Z,97559.31
2023-03-19T23:36:19.260Z,97561.38
2023-03-19T23:38:47.706Z,97552.72
2023-03-19T23:41:21.799Z,97560.84
2023-03-19T23:43:49.720Z,97554.94
2023-03-19T23:46:17.690Z,97557.84
2023-03-19T23:48:45.685Z,97555.09
2023-03-19T23:51:15.848Z,97556.97
2023-03-19T23:53:44.177Z,97564.94
2023-03-19T23:56:18.129Z,97558.69
2023-03-19T23:58:45.952Z,97570.84
